sensor_id;sensor_type;location;lat;lon;timestamp;P1;durP1;ratioP1;P2;durP2;ratioP2
78489;SDS011;67776;52.012;4.736;2023-05-07T00:01:30;34.30;;;18.50;;
78489;SDS011;67776;52.012;4.736;2023-05-07T00:03:56;37.47;;;19.43;;
78489;SDS011;67776;52.012;4.736;2023-05-07T00:06:21;34.20;;;19.80;;
78489;SDS011;67776;52.012;4.736;2023-05-07T00:08:47;35.50;;;19.52;;
78489;SDS011;67776;52.012;4.736;2023-05-07T00:11:12;35.03;;;19.13;;
78489;SDS011;67776;52.012;4.736;2023-05-07T00:13:38;33.57;;;18.73;;
78489;SDS011;67776;52.012;4.736;2023-05-07T00:16:03;35.10;;;19.88;;
78489;SDS011;67776;52.012;4.736;2023-05-07T00:18:29;37.27;;;19.73;;
78489;SDS011;67776;52.012;4.736;2023-05-07T00:20:55;37.15;;;20.27;;
78489;SDS011;67776;52.012;4.736;2023-05-07T00:23:21;37.47;;;20.30;;
78489;SDS011;67776;52.012;4.736;2023-05-07T00:25:46;33.53;;;19.50;;
78489;SDS011;67776;52.012;4.736;2023-05-07T00:28:11;39.83;;;20.37;;
78489;SDS011;67776;52.012;4.736;2023-05-07T00:30:37;38.40;;;20.97;;
78489;SDS011;67776;52.012;4.736;2023-05-07T00:33:02;35.67;;;20.00;;
78489;SDS011;67776;52.012;4.736;2023-05-07T00:35:28;38.33;;;21.20;;
78489;SDS011;67776;52.012;4.736;2023-05-07T00:37:54;43.83;;;22.35;;
78489;SDS011;67776;52.012;4.736;2023-05-07T00:40:20;38.67;;;21.80;;
78489;SDS011;67776;52.012;4.736;2023-05-07T00:42:45;38.78;;;21.77;;
78489;SDS011;67776;52.012;4.736;2023-05-07T00:45:12;38.43;;;22.30;;
78489;SDS011;67776;52.012;4.736;2023-05-07T00:47:41;38.72;;;22.77;;
78489;SDS011;67776;52.012;4.736;2023-05-07T00:50:07;39.30;;;22.70;;
78489;SDS011;67776;52.012;4.736;2023-05-07T00:52:34;40.85;;;22.42;;
78489;SDS011;67776;52.012;4.736;2023-05-07T00:55:01;39.53;;;21.93;;
78489;SDS011;67776;52.012;4.736;2023-05-07T00:57:32;37.50;;;21.75;;
78489;SDS011;67776;52.012;4.736;2023-05-07T01:00:02;40.33;;;22.52;;
78489;SDS011;67776;52.012;4.736;2023-05-07T01:02:29;40.63;;;22.83;;
78489;SDS011;67776;52.012;4.736;2023-05-07T01:04:54;43.40;;;23.65;;
78489;SDS011;67776;52.012;4.736;2023-05-07T01:07:20;42.23;;;23.10;;
78489;SDS011;67776;52.012;4.736;2023-05-07T01:09:46;40.10;;;23.00;;
78489;SDS011;67776;52.012;4.736;2023-05-07T01:12:12;41.00;;;24.37;;
78489;SDS011;67776;52.012;4.736;2023-05-07T01:14:37;45.10;;;24.08;;
78489;SDS011;67776;52.012;4.736;2023-05-07T01:17:03;42.23;;;25.00;;
78489;SDS011;67776;52.012;4.736;2023-05-07T01:19:28;44.13;;;24.85;;
78489;SDS011;67776;52.012;4.736;2023-05-07T01:21:55;44.40;;;25.65;;
78489;SDS011;67776;52.012;4.736;2023-05-07T01:24:28;44.30;;;25.47;;
78489;SDS011;67776;52.012;4.736;2023-05-07T01:26:54;43.72;;;25.02;;
78489;SDS011;67776;52.012;4.736;2023-05-07T01:29:20;43.63;;;25.43;;
78489;SDS011;67776;52.012;4.736;2023-05-07T01:31:45;46.17;;;26.33;;
78489;SDS011;67776;52.012;4.736;2023-05-07T01:34:12;41.75;;;25.45;;
78489;SDS011;67776;52.012;4.736;2023-05-07T01:36:40;47.17;;;27.13;;
78489;SDS011;67776;52.012;4.736;2023-05-07T01:39:08;45.38;;;25.90;;
78489;SDS011;67776;52.012;4.736;2023-05-07T01:41:34;42.13;;;25.38;;
78489;SDS011;67776;52.012;4.736;2023-05-07T01:44:00;40.83;;;24.33;;
78489;SDS011;67776;52.012;4.736;2023-05-07T01:46:26;45.80;;;26.45;;
78489;SDS011;67776;52.012;4.736;2023-05-07T01:48:51;44.60;;;25.93;;
78489;SDS011;67776;52.012;4.736;2023-05-07T01:51:16;42.87;;;26.80;;
78489;SDS011;67776;52.012;4.736;2023-05-07T01:53:42;44.38;;;27.40;;
78489;SDS011;67776;52.012;4.736;2023-05-07T01:56:08;41.78;;;25.90;;
78489;SDS011;67776;52.012;4.736;2023-05-07T01:58:34;37.73;;;24.40;;
78489;SDS011;67776;52.012;4.736;2023-05-07T02:00:59;41.63;;;25.47;;
78489;SDS011;67776;52.012;4.736;2023-05-07T02:03:25;43.30;;;26.17;;
78489;SDS011;67776;52.012;4.736;2023-05-07T02:05:50;37.03;;;23.88;;
78489;SDS011;67776;52.012;4.736;2023-05-07T02:08:16;40.57;;;24.43;;
78489;SDS011;67776;52.012;4.736;2023-05-07T02:10:41;41.67;;;25.23;;
78489;SDS011;67776;52.012;4.736;2023-05-07T02:13:06;39.37;;;25.40;;
78489;SDS011;67776;52.012;4.736;2023-05-07T02:15:32;40.37;;;25.07;;
78489;SDS011;67776;52.012;4.736;2023-05-07T02:20:31;39.45;;;24.50;;
78489;SDS011;67776;52.012;4.736;2023-05-07T02:22:56;39.40;;;24.48;;
78489;SDS011;67776;52.012;4.736;2023-05-07T02:25:22;40.00;;;24.47;;
78489;SDS011;67776;52.012;4.736;2023-05-07T02:27:47;38.10;;;23.03;;
78489;SDS011;67776;52.012;4.736;2023-05-07T02:30:13;33.95;;;22.20;;
78489;SDS011;67776;52.012;4.736;2023-05-07T02:32:39;32.43;;;21.43;;
78489;SDS011;67776;52.012;4.736;2023-05-07T02:35:05;32.40;;;21.63;;
78489;SDS011;67776;52.012;4.736;2023-05-07T02:37:30;30.48;;;20.40;;
78489;SDS011;67776;52.012;4.736;2023-05-07T02:39:55;32.63;;;20.53;;
78489;SDS011;67776;52.012;4.736;2023-05-07T02:42:21;31.67;;;20.30;;
78489;SDS011;67776;52.012;4.736;2023-05-07T02:44:46;32.10;;;20.13;;
78489;SDS011;67776;52.012;4.736;2023-05-07T02:47:12;29.30;;;19.20;;
78489;SDS011;67776;52.012;4.736;2023-05-07T02:49:39;32.83;;;20.27;;
78489;SDS011;67776;52.012;4.736;2023-05-07T02:52:04;31.27;;;20.30;;
78489;SDS011;67776;52.012;4.736;2023-05-07T02:54:29;30.98;;;20.42;;
78489;SDS011;67776;52.012;4.736;2023-05-07T02:56:55;29.20;;;19.63;;
78489;SDS011;67776;52.012;4.736;2023-05-07T02:59:21;28.67;;;19.27;;
78489;SDS011;67776;52.012;4.736;2023-05-07T03:01:46;28.07;;;19.73;;
78489;SDS011;67776;52.012;4.736;2023-05-07T03:04:13;26.67;;;19.17;;
78489;SDS011;67776;52.012;4.736;2023-05-07T03:06:38;28.15;;;19.35;;
78489;SDS011;67776;52.012;4.736;2023-05-07T03:09:04;31.17;;;18.93;;
78489;SDS011;67776;52.012;4.736;2023-05-07T03:11:29;27.83;;;19.53;;
78489;SDS011;67776;52.012;4.736;2023-05-07T03:13:55;26.42;;;18.05;;
78489;SDS011;67776;52.012;4.736;2023-05-07T03:16:20;28.03;;;19.63;;
78489;SDS011;67776;52.012;4.736;2023-05-07T03:18:46;30.43;;;19.30;;
78489;SDS011;67776;52.012;4.736;2023-05-07T03:21:11;27.17;;;19.03;;
78489;SDS011;67776;52.012;4.736;2023-05-07T03:23:37;28.67;;;19.05;;
78489;SDS011;67776;52.012;4.736;2023-05-07T03:26:02;29.50;;;19.13;;
78489;SDS011;67776;52.012;4.736;2023-05-07T03:28:27;26.67;;;18.57;;
78489;SDS011;67776;52.012;4.736;2023-05-07T03:30:53;28.30;;;19.87;;
78489;SDS011;67776;52.012;4.736;2023-05-07T03:33:18;34.97;;;20.17;;
78489;SDS011;67776;52.012;4.736;2023-05-07T03:35:43;30.43;;;19.63;;
78489;SDS011;67776;52.012;4.736;2023-05-07T03:38:09;29.10;;;19.73;;
78489;SDS011;67776;52.012;4.736;2023-05-07T03:40:34;29.03;;;20.23;;
78489;SDS011;67776;52.012;4.736;2023-05-07T03:42:59;30.67;;;19.37;;
78489;SDS011;67776;52.012;4.736;2023-05-07T03:45:25;30.38;;;20.75;;
78489;SDS011;67776;52.012;4.736;2023-05-07T03:47:54;30.23;;;19.67;;
78489;SDS011;67776;52.012;4.736;2023-05-07T03:50:19;29.10;;;19.35;;
78489;SDS011;67776;52.012;4.736;2023-05-07T03:52:45;32.57;;;20.50;;
78489;SDS011;67776;52.012;4.736;2023-05-07T03:55:10;29.80;;;19.75;;
78489;SDS011;67776;52.012;4.736;2023-05-07T03:57:36;29.40;;;18.53;;
78489;SDS011;67776;52.012;4.736;2023-05-07T04:00:01;30.00;;;20.37;;
78489;SDS011;67776;52.012;4.736;2023-05-07T04:02:28;29.70;;;20.23;;
78489;SDS011;67776;52.012;4.736;2023-05-07T04:04:54;28.87;;;19.63;;
78489;SDS011;67776;52.012;4.736;2023-05-07T04:07:19;31.37;;;20.17;;
78489;SDS011;67776;52.012;4.736;2023-05-07T04:09:44;28.07;;;18.93;;
78489;SDS011;67776;52.012;4.736;2023-05-07T04:12:10;29.87;;;19.73;;
78489;SDS011;67776;52.012;4.736;2023-05-07T04:14:35;29.87;;;19.17;;
78489;SDS011;67776;52.012;4.736;2023-05-07T04:17:00;28.93;;;19.47;;
78489;SDS011;67776;52.012;4.736;2023-05-07T04:19:26;31.50;;;19.90;;
78489;SDS011;67776;52.012;4.736;2023-05-07T04:21:52;28.20;;;18.50;;
78489;SDS011;67776;52.012;4.736;2023-05-07T04:24:17;31.20;;;19.23;;
78489;SDS011;67776;52.012;4.736;2023-05-07T04:26:42;25.93;;;18.43;;
78489;SDS011;67776;52.012;4.736;2023-05-07T04:29:08;29.13;;;18.97;;
78489;SDS011;67776;52.012;4.736;2023-05-07T04:31:33;28.97;;;19.13;;
78489;SDS011;67776;52.012;4.736;2023-05-07T04:33:59;29.85;;;19.58;;
78489;SDS011;67776;52.012;4.736;2023-05-07T04:36:24;29.30;;;20.00;;
78489;SDS011;67776;52.012;4.736;2023-05-07T04:38:52;32.00;;;19.83;;
78489;SDS011;67776;52.012;4.736;2023-05-07T04:41:18;31.70;;;19.07;;
78489;SDS011;67776;52.012;4.736;2023-05-07T04:43:44;28.42;;;18.80;;
78489;SDS011;67776;52.012;4.736;2023-05-07T04:46:09;29.43;;;18.40;;
78489;SDS011;67776;52.012;4.736;2023-05-07T04:48:35;27.03;;;17.97;;
78489;SDS011;67776;52.012;4.736;2023-05-07T04:51:00;25.92;;;17.38;;
78489;SDS011;67776;52.012;4.736;2023-05-07T04:53:25;26.17;;;18.00;;
78489;SDS011;67776;52.012;4.736;2023-05-07T04:55:55;25.73;;;17.03;;
78489;SDS011;67776;52.012;4.736;2023-05-07T04:58:22;25.88;;;16.88;;
78489;SDS011;67776;52.012;4.736;2023-05-07T05:00:47;27.63;;;17.63;;
78489;SDS011;67776;52.012;4.736;2023-05-07T05:03:12;26.63;;;17.03;;
78489;SDS011;67776;52.012;4.736;2023-05-07T05:05:38;27.63;;;18.37;;
78489;SDS011;67776;52.012;4.736;2023-05-07T05:08:03;27.67;;;17.50;;
78489;SDS011;67776;52.012;4.736;2023-05-07T05:10:28;27.58;;;17.73;;
78489;SDS011;67776;52.012;4.736;2023-05-07T05:12:54;29.80;;;18.30;;
78489;SDS011;67776;52.012;4.736;2023-05-07T05:15:19;26.53;;;17.70;;
78489;SDS011;67776;52.012;4.736;2023-05-07T05:17:45;28.57;;;17.97;;
78489;SDS011;67776;52.012;4.736;2023-05-07T05:20:10;29.15;;;18.98;;
78489;SDS011;67776;52.012;4.736;2023-05-07T05:22:36;29.80;;;18.40;;
78489;SDS011;67776;52.012;4.736;2023-05-07T05:25:02;29.08;;;18.95;;
78489;SDS011;67776;52.012;4.736;2023-05-07T05:27:28;29.70;;;18.63;;
78489;SDS011;67776;52.012;4.736;2023-05-07T05:29:53;28.85;;;18.83;;
78489;SDS011;67776;52.012;4.736;2023-05-07T05:32:19;28.73;;;19.63;;
78489;SDS011;67776;52.012;4.736;2023-05-07T05:34:44;31.70;;;19.65;;
78489;SDS011;67776;52.012;4.736;2023-05-07T05:37:10;28.00;;;18.83;;
78489;SDS011;67776;52.012;4.736;2023-05-07T05:39:35;32.67;;;21.00;;
78489;SDS011;67776;52.012;4.736;2023-05-07T05:42:01;31.42;;;20.45;;
78489;SDS011;67776;52.012;4.736;2023-05-07T05:44:27;30.23;;;19.63;;
78489;SDS011;67776;52.012;4.736;2023-05-07T05:46:52;30.50;;;19.60;;
78489;SDS011;67776;52.012;4.736;2023-05-07T05:49:20;32.03;;;20.90;;
78489;SDS011;67776;52.012;4.736;2023-05-07T05:51:45;34.53;;;20.63;;
78489;SDS011;67776;52.012;4.736;2023-05-07T05:54:10;33.67;;;21.37;;
78489;SDS011;67776;52.012;4.736;2023-05-07T05:56:36;31.07;;;20.20;;
78489;SDS011;67776;52.012;4.736;2023-05-07T05:59:02;32.70;;;21.83;;
78489;SDS011;67776;52.012;4.736;2023-05-07T06:01:27;33.57;;;22.60;;
78489;SDS011;67776;52.012;4.736;2023-05-07T06:03:53;36.22;;;21.58;;
78489;SDS011;67776;52.012;4.736;2023-05-07T06:06:18;34.37;;;21.97;;
78489;SDS011;67776;52.012;4.736;2023-05-07T06:08:43;32.10;;;21.93;;
78489;SDS011;67776;52.012;4.736;2023-05-07T06:11:09;35.10;;;22.43;;
78489;SDS011;67776;52.012;4.736;2023-05-07T06:13:34;35.00;;;23.43;;
78489;SDS011;67776;52.012;4.736;2023-05-07T06:15:59;38.30;;;23.93;;
78489;SDS011;67776;52.012;4.736;2023-05-07T06:18:25;34.83;;;22.57;;
78489;SDS011;67776;52.012;4.736;2023-05-07T06:20:51;35.43;;;22.67;;
78489;SDS011;67776;52.012;4.736;2023-05-07T06:23:17;36.15;;;22.65;;
78489;SDS011;67776;52.012;4.736;2023-05-07T06:25:45;36.97;;;24.03;;
78489;SDS011;67776;52.012;4.736;2023-05-07T06:28:13;39.40;;;23.88;;
78489;SDS011;67776;52.012;4.736;2023-05-07T06:30:38;38.40;;;24.50;;
78489;SDS011;67776;52.012;4.736;2023-05-07T06:33:05;39.97;;;23.98;;
78489;SDS011;67776;52.012;4.736;2023-05-07T06:35:30;37.20;;;24.27;;
78489;SDS011;67776;52.012;4.736;2023-05-07T06:37:55;38.93;;;24.20;;
78489;SDS011;67776;52.012;4.736;2023-05-07T06:40:21;37.60;;;24.30;;
78489;SDS011;67776;52.012;4.736;2023-05-07T06:42:46;40.50;;;24.67;;
78489;SDS011;67776;52.012;4.736;2023-05-07T06:45:11;37.40;;;25.03;;
78489;SDS011;67776;52.012;4.736;2023-05-07T06:47:37;36.90;;;25.40;;
78489;SDS011;67776;52.012;4.736;2023-05-07T06:50:02;37.17;;;23.57;;
78489;SDS011;67776;52.012;4.736;2023-05-07T06:52:27;35.97;;;23.35;;
78489;SDS011;67776;52.012;4.736;2023-05-07T06:54:53;40.53;;;25.10;;
78489;SDS011;67776;52.012;4.736;2023-05-07T06:57:18;39.23;;;24.57;;
78489;SDS011;67776;52.012;4.736;2023-05-07T06:59:43;38.47;;;23.57;;
78489;SDS011;67776;52.012;4.736;2023-05-07T07:02:09;39.37;;;24.67;;
78489;SDS011;67776;52.012;4.736;2023-05-07T07:04:34;41.37;;;24.93;;
78489;SDS011;67776;52.012;4.736;2023-05-07T07:06:59;41.72;;;25.73;;
78489;SDS011;67776;52.012;4.736;2023-05-07T07:09:25;40.27;;;25.43;;
78489;SDS011;67776;52.012;4.736;2023-05-07T07:11:50;39.97;;;25.83;;
78489;SDS011;67776;52.012;4.736;2023-05-07T07:14:15;44.77;;;27.83;;
78489;SDS011;67776;52.012;4.736;2023-05-07T07:16:41;49.63;;;28.33;;
78489;SDS011;67776;52.012;4.736;2023-05-07T07:19:06;43.13;;;27.17;;
78489;SDS011;67776;52.012;4.736;2023-05-07T07:21:32;45.03;;;28.03;;
78489;SDS011;67776;52.012;4.736;2023-05-07T07:23:57;45.42;;;28.80;;
78489;SDS011;67776;52.012;4.736;2023-05-07T07:26:22;48.13;;;28.67;;
78489;SDS011;67776;52.012;4.736;2023-05-07T07:28:48;42.30;;;27.13;;
78489;SDS011;67776;52.012;4.736;2023-05-07T07:31:13;47.63;;;29.17;;
78489;SDS011;67776;52.012;4.736;2023-05-07T07:33:39;45.78;;;28.83;;
78489;SDS011;67776;52.012;4.736;2023-05-07T07:36:05;46.45;;;28.52;;
78489;SDS011;67776;52.012;4.736;2023-05-07T07:38:31;45.63;;;29.60;;
78489;SDS011;67776;52.012;4.736;2023-05-07T07:40:56;45.58;;;29.58;;
78489;SDS011;67776;52.012;4.736;2023-05-07T07:43:25;44.10;;;28.27;;
78489;SDS011;67776;52.012;4.736;2023-05-07T07:45:50;45.37;;;29.03;;
78489;SDS011;67776;52.012;4.736;2023-05-07T07:48:16;44.03;;;28.10;;
78489;SDS011;67776;52.012;4.736;2023-05-07T07:50:41;40.40;;;26.67;;
78489;SDS011;67776;52.012;4.736;2023-05-07T07:53:06;40.75;;;27.33;;
78489;SDS011;67776;52.012;4.736;2023-05-07T07:55:32;39.93;;;27.03;;
78489;SDS011;67776;52.012;4.736;2023-05-07T07:57:57;37.43;;;25.87;;
78489;SDS011;67776;52.012;4.736;2023-05-07T08:00:22;37.77;;;25.63;;
78489;SDS011;67776;52.012;4.736;2023-05-07T08:02:48;42.37;;;27.17;;
78489;SDS011;67776;52.012;4.736;2023-05-07T08:05:13;40.22;;;26.80;;
78489;SDS011;67776;52.012;4.736;2023-05-07T08:07:40;40.80;;;25.57;;
78489;SDS011;67776;52.012;4.736;2023-05-07T08:10:05;35.97;;;25.00;;
78489;SDS011;67776;52.012;4.736;2023-05-07T08:12:31;35.80;;;24.37;;
78489;SDS011;67776;52.012;4.736;2023-05-07T08:14:56;38.58;;;24.48;;
78489;SDS011;67776;52.012;4.736;2023-05-07T08:17:22;34.90;;;24.13;;
78489;SDS011;67776;52.012;4.736;2023-05-07T08:19:47;29.60;;;20.43;;
78489;SDS011;67776;52.012;4.736;2023-05-07T08:22:13;30.63;;;21.57;;
78489;SDS011;67776;52.012;4.736;2023-05-07T08:24:39;30.42;;;20.85;;
78489;SDS011;67776;52.012;4.736;2023-05-07T08:27:05;26.73;;;19.80;;
78489;SDS011;67776;52.012;4.736;2023-05-07T08:29:30;23.90;;;17.20;;
78489;SDS011;67776;52.012;4.736;2023-05-07T08:31:56;28.83;;;18.67;;
78489;SDS011;67776;52.012;4.736;2023-05-07T08:34:21;27.07;;;18.87;;
78489;SDS011;67776;52.012;4.736;2023-05-07T08:36:47;25.70;;;18.13;;
78489;SDS011;67776;52.012;4.736;2023-05-07T08:39:13;23.50;;;16.50;;
78489;SDS011;67776;52.012;4.736;2023-05-07T08:41:41;23.67;;;16.15;;
78489;SDS011;67776;52.012;4.736;2023-05-07T08:44:11;25.43;;;16.77;;
78489;SDS011;67776;52.012;4.736;2023-05-07T08:46:37;22.30;;;16.05;;
78489;SDS011;67776;52.012;4.736;2023-05-07T08:49:02;20.27;;;14.40;;
78489;SDS011;67776;52.012;4.736;2023-05-07T08:51:28;20.50;;;14.68;;
78489;SDS011;67776;52.012;4.736;2023-05-07T08:53:53;22.93;;;15.80;;
78489;SDS011;67776;52.012;4.736;2023-05-07T08:56:19;21.70;;;14.70;;
78489;SDS011;67776;52.012;4.736;2023-05-07T08:58:45;23.02;;;14.82;;
78489;SDS011;67776;52.012;4.736;2023-05-07T09:01:14;19.93;;;13.50;;
78489;SDS011;67776;52.012;4.736;2023-05-07T09:03:41;18.77;;;12.40;;
78489;SDS011;67776;52.012;4.736;2023-05-07T09:06:08;18.40;;;12.27;;
78489;SDS011;67776;52.012;4.736;2023-05-07T09:08:34;17.60;;;11.80;;
78489;SDS011;67776;52.012;4.736;2023-05-07T09:11:00;18.10;;;12.43;;
78489;SDS011;67776;52.012;4.736;2023-05-07T09:13:27;18.20;;;12.07;;
78489;SDS011;67776;52.012;4.736;2023-05-07T09:15:53;18.37;;;12.63;;
78489;SDS011;67776;52.012;4.736;2023-05-07T09:18:18;17.58;;;10.82;;
78489;SDS011;67776;52.012;4.736;2023-05-07T09:20:43;13.50;;;7.90;;
78489;SDS011;67776;52.012;4.736;2023-05-07T09:23:09;14.77;;;9.97;;
78489;SDS011;67776;52.012;4.736;2023-05-07T09:25:34;16.23;;;10.23;;
78489;SDS011;67776;52.012;4.736;2023-05-07T09:28:01;15.20;;;10.55;;
78489;SDS011;67776;52.012;4.736;2023-05-07T09:30:28;17.10;;;11.25;;
78489;SDS011;67776;52.012;4.736;2023-05-07T09:32:54;12.35;;;8.07;;
78489;SDS011;67776;52.012;4.736;2023-05-07T09:35:20;12.63;;;8.03;;
78489;SDS011;67776;52.012;4.736;2023-05-07T09:37:55;13.85;;;8.07;;
78489;SDS011;67776;52.012;4.736;2023-05-07T09:40:22;12.95;;;8.25;;
78489;SDS011;67776;52.012;4.736;2023-05-07T09:42:48;14.32;;;7.53;;
78489;SDS011;67776;52.012;4.736;2023-05-07T09:45:15;10.87;;;7.23;;
78489;SDS011;67776;52.012;4.736;2023-05-07T09:47:42;11.95;;;7.60;;
78489;SDS011;67776;52.012;4.736;2023-05-07T09:50:09;13.25;;;8.10;;
78489;SDS011;67776;52.012;4.736;2023-05-07T09:52:36;14.00;;;8.82;;
78489;SDS011;67776;52.012;4.736;2023-05-07T09:55:05;14.80;;;9.93;;
78489;SDS011;67776;52.012;4.736;2023-05-07T09:57:32;15.07;;;9.40;;
78489;SDS011;67776;52.012;4.736;2023-05-07T09:59:58;12.90;;;8.77;;
78489;SDS011;67776;52.012;4.736;2023-05-07T10:02:27;15.05;;;9.35;;
78489;SDS011;67776;52.012;4.736;2023-05-07T10:04:56;12.48;;;7.50;;
78489;SDS011;67776;52.012;4.736;2023-05-07T10:07:25;14.57;;;8.40;;
78489;SDS011;67776;52.012;4.736;2023-05-07T10:09:51;12.23;;;7.73;;
78489;SDS011;67776;52.012;4.736;2023-05-07T10:12:17;9.32;;;6.28;;
78489;SDS011;67776;52.012;4.736;2023-05-07T10:14:45;12.15;;;6.65;;
78489;SDS011;67776;52.012;4.736;2023-05-07T10:17:11;9.73;;;5.72;;
78489;SDS011;67776;52.012;4.736;2023-05-07T10:19:38;10.57;;;6.25;;
78489;SDS011;67776;52.012;4.736;2023-05-07T10:22:05;10.83;;;5.90;;
78489;SDS011;67776;52.012;4.736;2023-05-07T10:24:35;10.05;;;5.95;;
78489;SDS011;67776;52.012;4.736;2023-05-07T10:27:02;12.85;;;7.45;;
78489;SDS011;67776;52.012;4.736;2023-05-07T10:32:30;13.13;;;7.65;;
78489;SDS011;67776;52.012;4.736;2023-05-07T10:35:02;12.68;;;7.78;;
78489;SDS011;67776;52.012;4.736;2023-05-07T10:37:30;12.65;;;6.95;;
78489;SDS011;67776;52.012;4.736;2023-05-07T10:39:56;9.33;;;6.10;;
78489;SDS011;67776;52.012;4.736;2023-05-07T10:42:22;11.43;;;6.22;;
78489;SDS011;67776;52.012;4.736;2023-05-07T10:44:48;14.50;;;6.50;;
78489;SDS011;67776;52.012;4.736;2023-05-07T10:47:14;10.20;;;7.03;;
78489;SDS011;67776;52.012;4.736;2023-05-07T10:52:17;11.00;;;7.50;;
78489;SDS011;67776;52.012;4.736;2023-05-07T10:54:44;12.63;;;8.15;;
78489;SDS011;67776;52.012;4.736;2023-05-07T10:57:32;15.63;;;8.10;;
78489;SDS011;67776;52.012;4.736;2023-05-07T10:59:57;11.18;;;7.82;;
78489;SDS011;67776;52.012;4.736;2023-05-07T11:02:23;13.10;;;8.32;;
78489;SDS011;67776;52.012;4.736;2023-05-07T11:05:24;10.02;;;6.95;;
78489;SDS011;67776;52.012;4.736;2023-05-07T11:07:59;11.83;;;6.63;;
78489;SDS011;67776;52.012;4.736;2023-05-07T11:16:21;9.75;;;5.90;;
78489;SDS011;67776;52.012;4.736;2023-05-07T11:18:49;9.38;;;5.45;;
78489;SDS011;67776;52.012;4.736;2023-05-07T11:21:31;9.30;;;5.53;;
78489;SDS011;67776;52.012;4.736;2023-05-07T11:24:07;9.27;;;5.70;;
78489;SDS011;67776;52.012;4.736;2023-05-07T11:26:44;9.75;;;6.32;;
78489;SDS011;67776;52.012;4.736;2023-05-07T11:29:14;13.05;;;8.02;;
78489;SDS011;67776;52.012;4.736;2023-05-07T11:31:48;10.27;;;7.38;;
78489;SDS011;67776;52.012;4.736;2023-05-07T11:34:14;12.63;;;7.00;;
78489;SDS011;67776;52.012;4.736;2023-05-07T11:36:45;10.93;;;6.22;;
78489;SDS011;67776;52.012;4.736;2023-05-07T11:39:28;12.27;;;8.00;;
78489;SDS011;67776;52.012;4.736;2023-05-07T11:41:59;10.25;;;7.40;;
78489;SDS011;67776;52.012;4.736;2023-05-07T11:44:25;11.88;;;8.05;;
78489;SDS011;67776;52.012;4.736;2023-05-07T11:46:50;12.37;;;7.77;;
78489;SDS011;67776;52.012;4.736;2023-05-07T11:49:19;13.95;;;8.88;;
78489;SDS011;67776;52.012;4.736;2023-05-07T11:51:44;11.97;;;8.27;;
78489;SDS011;67776;52.012;4.736;2023-05-07T11:54:11;12.45;;;8.90;;
78489;SDS011;67776;52.012;4.736;2023-05-07T11:56:43;11.48;;;8.50;;
78489;SDS011;67776;52.012;4.736;2023-05-07T11:59:16;12.10;;;8.73;;
78489;SDS011;67776;52.012;4.736;2023-05-07T12:01:48;13.63;;;8.52;;
78489;SDS011;67776;52.012;4.736;2023-05-07T12:04:13;13.00;;;8.40;;
78489;SDS011;67776;52.012;4.736;2023-05-07T12:06:39;12.67;;;8.03;;
78489;SDS011;67776;52.012;4.736;2023-05-07T12:09:04;12.20;;;7.63;;
78489;SDS011;67776;52.012;4.736;2023-05-07T12:11:34;13.05;;;7.50;;
78489;SDS011;67776;52.012;4.736;2023-05-07T12:14:05;11.40;;;8.70;;
78489;SDS011;67776;52.012;4.736;2023-05-07T12:16:30;14.60;;;9.65;;
78489;SDS011;67776;52.012;4.736;2023-05-07T12:18:56;13.30;;;8.43;;
78489;SDS011;67776;52.012;4.736;2023-05-07T12:21:24;14.15;;;9.30;;
78489;SDS011;67776;52.012;4.736;2023-05-07T12:23:50;12.25;;;8.90;;
78489;SDS011;67776;52.012;4.736;2023-05-07T12:26:15;12.47;;;9.57;;
78489;SDS011;67776;52.012;4.736;2023-05-07T12:28:41;16.27;;;10.80;;
78489;SDS011;67776;52.012;4.736;2023-05-07T12:31:06;13.90;;;11.10;;
78489;SDS011;67776;52.012;4.736;2023-05-07T12:33:33;14.07;;;11.35;;
78489;SDS011;67776;52.012;4.736;2023-05-07T12:36:02;15.45;;;11.77;;
78489;SDS011;67776;52.012;4.736;2023-05-07T12:38:33;15.48;;;10.82;;
78489;SDS011;67776;52.012;4.736;2023-05-07T12:41:02;15.93;;;10.35;;
78489;SDS011;67776;52.012;4.736;2023-05-07T12:43:27;16.60;;;11.13;;
78489;SDS011;67776;52.012;4.736;2023-05-07T12:45:54;14.27;;;10.30;;
78489;SDS011;67776;52.012;4.736;2023-05-07T12:48:21;14.48;;;11.00;;
78489;SDS011;67776;52.012;4.736;2023-05-07T12:50:50;13.73;;;10.38;;
78489;SDS011;67776;52.012;4.736;2023-05-07T12:53:16;13.95;;;10.18;;
78489;SDS011;67776;52.012;4.736;2023-05-07T12:55:42;13.53;;;9.73;;
78489;SDS011;67776;52.012;4.736;2023-05-07T13:00:56;16.23;;;10.15;;
78489;SDS011;67776;52.012;4.736;2023-05-07T13:05:57;14.15;;;10.10;;
78489;SDS011;67776;52.012;4.736;2023-05-07T13:08:30;13.98;;;10.05;;
78489;SDS011;67776;52.012;4.736;2023-05-07T13:11:02;14.35;;;9.10;;
78489;SDS011;67776;52.012;4.736;2023-05-07T13:13:32;14.98;;;9.88;;
78489;SDS011;67776;52.012;4.736;2023-05-07T13:15:59;13.93;;;9.50;;
78489;SDS011;67776;52.012;4.736;2023-05-07T13:18:25;16.10;;;9.13;;
78489;SDS011;67776;52.012;4.736;2023-05-07T13:20:52;13.27;;;9.23;;
78489;SDS011;67776;52.012;4.736;2023-05-07T13:23:18;14.65;;;9.93;;
78489;SDS011;67776;52.012;4.736;2023-05-07T13:25:44;16.77;;;9.70;;
78489;SDS011;67776;52.012;4.736;2023-05-07T13:28:09;14.67;;;9.43;;
78489;SDS011;67776;52.012;4.736;2023-05-07T13:30:35;12.90;;;9.38;;
78489;SDS011;67776;52.012;4.736;2023-05-07T13:33:00;17.97;;;11.30;;
78489;SDS011;67776;52.012;4.736;2023-05-07T13:35:26;15.73;;;10.90;;
78489;SDS011;67776;52.012;4.736;2023-05-07T13:37:51;17.90;;;11.07;;
78489;SDS011;67776;52.012;4.736;2023-05-07T13:40:17;15.00;;;9.87;;
78489;SDS011;67776;52.012;4.736;2023-05-07T13:42:43;16.42;;;10.43;;
78489;SDS011;67776;52.012;4.736;2023-05-07T13:45:09;13.13;;;9.13;;
78489;SDS011;67776;52.012;4.736;2023-05-07T13:47:34;14.37;;;9.40;;
78489;SDS011;67776;52.012;4.736;2023-05-07T13:50:00;14.23;;;9.65;;
78489;SDS011;67776;52.012;4.736;2023-05-07T13:52:25;16.97;;;10.03;;
78489;SDS011;67776;52.012;4.736;2023-05-07T13:54:51;14.43;;;9.10;;
78489;SDS011;67776;52.012;4.736;2023-05-07T13:57:17;15.18;;;9.32;;
78489;SDS011;67776;52.012;4.736;2023-05-07T13:59:43;16.95;;;11.15;;
78489;SDS011;67776;52.012;4.736;2023-05-07T14:02:08;17.67;;;11.37;;
78489;SDS011;67776;52.012;4.736;2023-05-07T14:04:34;16.63;;;11.60;;
78489;SDS011;67776;52.012;4.736;2023-05-07T14:06:59;19.88;;;11.93;;
78489;SDS011;67776;52.012;4.736;2023-05-07T14:09:25;20.30;;;12.67;;
78489;SDS011;67776;52.012;4.736;2023-05-07T14:11:50;17.80;;;12.60;;
78489;SDS011;67776;52.012;4.736;2023-05-07T14:14:19;19.00;;;12.98;;
78489;SDS011;67776;52.012;4.736;2023-05-07T14:16:45;16.73;;;12.30;;
78489;SDS011;67776;52.012;4.736;2023-05-07T14:19:11;17.83;;;13.53;;
78489;SDS011;67776;52.012;4.736;2023-05-07T14:21:38;18.02;;;13.57;;
78489;SDS011;67776;52.012;4.736;2023-05-07T14:24:06;18.92;;;13.10;;
78489;SDS011;67776;52.012;4.736;2023-05-07T14:26:33;18.92;;;12.48;;
78489;SDS011;67776;52.012;4.736;2023-05-07T14:28:59;20.60;;;13.33;;
78489;SDS011;67776;52.012;4.736;2023-05-07T14:31:24;21.40;;;14.20;;
78489;SDS011;67776;52.012;4.736;2023-05-07T14:33:50;19.63;;;14.30;;
78489;SDS011;67776;52.012;4.736;2023-05-07T14:36:16;23.40;;;13.57;;
78489;SDS011;67776;52.012;4.736;2023-05-07T14:38:42;21.55;;;14.20;;
78489;SDS011;67776;52.012;4.736;2023-05-07T14:41:07;19.33;;;13.10;;